sensor_id;sensor_type;location;lat;lon;timestamp;temperature;humidity
69189;DHT22;56302;52.322;5.926;2023-02-21T00:01:51;8.40;97.10
69189;DHT22;56302;52.322;5.926;2023-02-21T00:04:35;8.40;97.10
69189;DHT22;56302;52.322;5.926;2023-02-21T00:07:20;8.40;97.10
69189;DHT22;56302;52.322;5.926;2023-02-21T00:10:05;8.50;97.10
69189;DHT22;56302;52.322;5.926;2023-02-21T00:12:50;8.40;97.10
69189;DHT22;56302;52.322;5.926;2023-02-21T00:15:34;8.40;97.10
69189;DHT22;56302;52.322;5.926;2023-02-21T00:18:18;8.40;97.10
69189;DHT22;56302;52.322;5.926;2023-02-21T00:21:03;8.40;97.10
69189;DHT22;56302;52.322;5.926;2023-02-21T00:23:47;8.50;97.10
69189;DHT22;56302;52.322;5.926;2023-02-21T00:26:31;8.50;97.10
69189;DHT22;56302;52.322;5.926;2023-02-21T00:29:15;8.50;97.00
69189;DHT22;56302;52.322;5.926;2023-02-21T00:31:59;8.50;97.10
69189;DHT22;56302;52.322;5.926;2023-02-21T00:34:43;8.40;97.00
69189;DHT22;56302;52.322;5.926;2023-02-21T00:37:28;8.40;97.10
69189;DHT22;56302;52.322;5.926;2023-02-21T00:40:13;8.40;97.20
69189;DHT22;56302;52.322;5.926;2023-02-21T00:42:57;8.40;97.20
69189;DHT22;56302;52.322;5.926;2023-02-21T00:45:42;8.40;97.20
69189;DHT22;56302;52.322;5.926;2023-02-21T00:48:26;8.40;97.20
69189;DHT22;56302;52.322;5.926;2023-02-21T00:51:10;8.40;97.30
69189;DHT22;56302;52.322;5.926;2023-02-21T00:53:54;8.40;97.30
69189;DHT22;56302;52.322;5.926;2023-02-21T00:56:38;8.40;97.30
69189;DHT22;56302;52.322;5.926;2023-02-21T00:59:22;8.40;97.30
69189;DHT22;56302;52.322;5.926;2023-02-21T01:02:07;8.40;97.40
69189;DHT22;56302;52.322;5.926;2023-02-21T01:04:51;8.40;97.40
69189;DHT22;56302;52.322;5.926;2023-02-21T01:07:35;8.40;97.40
69189;DHT22;56302;52.322;5.926;2023-02-21T01:10:19;8.40;97.50
69189;DHT22;56302;52.322;5.926;2023-02-21T01:13:03;8.40;97.40
69189;DHT22;56302;52.322;5.926;2023-02-21T01:15:48;8.40;97.50
69189;DHT22;56302;52.322;5.926;2023-02-21T01:18:32;8.40;97.50
69189;DHT22;56302;52.322;5.926;2023-02-21T01:21:17;8.40;97.40
69189;DHT22;56302;52.322;5.926;2023-02-21T01:24:04;8.40;97.50
69189;DHT22;56302;52.322;5.926;2023-02-21T01:26:48;8.40;97.50
69189;DHT22;56302;52.322;5.926;2023-02-21T01:29:32;8.40;97.60
69189;DHT22;56302;52.322;5.926;2023-02-21T01:32:16;8.40;97.60
69189;DHT22;56302;52.322;5.926;2023-02-21T01:35:00;8.40;97.60
69189;DHT22;56302;52.322;5.926;2023-02-21T01:37:44;8.40;97.70
69189;DHT22;56302;52.322;5.926;2023-02-21T01:40:28;8.40;97.70
69189;DHT22;56302;52.322;5.926;2023-02-21T01:43:24;8.40;97.70
69189;DHT22;56302;52.322;5.926;2023-02-21T01:46:16;8.40;97.70
69189;DHT22;56302;52.322;5.926;2023-02-21T01:49:07;8.40;97.70
69189;DHT22;56302;52.322;5.926;2023-02-21T01:51:52;8.40;97.80
69189;DHT22;56302;52.322;5.926;2023-02-21T01:54:41;8.40;97.70
69189;DHT22;56302;52.322;5.926;2023-02-21T01:57:25;8.40;97.80
69189;DHT22;56302;52.322;5.926;2023-02-21T02:00:12;8.40;97.80
69189;DHT22;56302;52.322;5.926;2023-02-21T02:03:00;8.40;97.80
69189;DHT22;56302;52.322;5.926;2023-02-21T02:05:54;8.40;97.80
69189;DHT22;56302;52.322;5.926;2023-02-21T02:08:38;8.40;97.80
69189;DHT22;56302;52.322;5.926;2023-02-21T02:17:00;8.40;97.90
69189;DHT22;56302;52.322;5.926;2023-02-21T02:23:28;8.40;97.90
69189;DHT22;56302;52.322;5.926;2023-02-21T02:37:22;8.30;98.10
69189;DHT22;56302;52.322;5.926;2023-02-21T02:43:19;8.30;98.20
69189;DHT22;56302;52.322;5.926;2023-02-21T02:46:06;8.30;98.20
69189;DHT22;56302;52.322;5.926;2023-02-21T02:48:39;8.30;98.30
69189;DHT22;56302;52.322;5.926;2023-02-21T02:51:10;8.30;98.20
69189;DHT22;56302;52.322;5.926;2023-02-21T02:53:36;8.40;98.20
69189;DHT22;56302;52.322;5.926;2023-02-21T02:56:04;8.30;98.30
69189;DHT22;56302;52.322;5.926;2023-02-21T02:58:41;8.30;98.20
69189;DHT22;56302;52.322;5.926;2023-02-21T03:06:33;8.30;98.30
69189;DHT22;56302;52.322;5.926;2023-02-21T03:09:18;8.40;98.30
69189;DHT22;56302;52.322;5.926;2023-02-21T03:12:01;8.40;98.40
69189;DHT22;56302;52.322;5.926;2023-02-21T03:14:36;8.40;98.30
69189;DHT22;56302;52.322;5.926;2023-02-21T03:17:05;8.30;98.30
69189;DHT22;56302;52.322;5.926;2023-02-21T03:19:37;8.30;98.30
69189;DHT22;56302;52.322;5.926;2023-02-21T03:22:10;8.30;98.40
69189;DHT22;56302;52.322;5.926;2023-02-21T03:24:37;8.40;98.40
69189;DHT22;56302;52.322;5.926;2023-02-21T03:27:06;8.40;98.40
69189;DHT22;56302;52.322;5.926;2023-02-21T03:29:33;8.40;98.40
69189;DHT22;56302;52.322;5.926;2023-02-21T03:32:08;8.40;98.30
69189;DHT22;56302;52.322;5.926;2023-02-21T03:34:39;8.40;98.40
69189;DHT22;56302;52.322;5.926;2023-02-21T03:37:07;8.30;98.30
69189;DHT22;56302;52.322;5.926;2023-02-21T03:39:34;8.40;98.40
69189;DHT22;56302;52.322;5.926;2023-02-21T03:41:59;8.30;98.40
69189;DHT22;56302;52.322;5.926;2023-02-21T03:44:25;8.40;98.40
69189;DHT22;56302;52.322;5.926;2023-02-21T03:46:51;8.40;98.30
69189;DHT22;56302;52.322;5.926;2023-02-21T03:49:16;8.40;98.50
69189;DHT22;56302;52.322;5.926;2023-02-21T03:51:42;8.40;98.40
69189;DHT22;56302;52.322;5.926;2023-02-21T03:54:07;8.40;98.50
69189;DHT22;56302;52.322;5.926;2023-02-21T03:56:33;8.40;98.50
69189;DHT22;56302;52.322;5.926;2023-02-21T03:58:58;8.40;98.60
69189;DHT22;56302;52.322;5.926;2023-02-21T04:01:24;8.30;98.50
69189;DHT22;56302;52.322;5.926;2023-02-21T04:03:49;8.40;98.50
69189;DHT22;56302;52.322;5.926;2023-02-21T04:06:15;8.40;98.50
69189;DHT22;56302;52.322;5.926;2023-02-21T04:08:40;8.40;98.50
69189;DHT22;56302;52.322;5.926;2023-02-21T04:11:06;8.30;98.50
69189;DHT22;56302;52.322;5.926;2023-02-21T04:13:32;8.40;98.60
69189;DHT22;56302;52.322;5.926;2023-02-21T04:15:57;8.30;98.60
69189;DHT22;56302;52.322;5.926;2023-02-21T04:18:23;8.30;98.60
69189;DHT22;56302;52.322;5.926;2023-02-21T04:20:49;8.30;98.70
69189;DHT22;56302;52.322;5.926;2023-02-21T04:23:17;8.30;98.70
69189;DHT22;56302;52.322;5.926;2023-02-21T04:25:43;8.30;98.70
69189;DHT22;56302;52.322;5.926;2023-02-21T04:28:09;8.30;98.70
69189;DHT22;56302;52.322;5.926;2023-02-21T04:30:34;8.30;98.80
69189;DHT22;56302;52.322;5.926;2023-02-21T04:33:00;8.30;98.80
69189;DHT22;56302;52.322;5.926;2023-02-21T04:35:25;8.30;98.80
69189;DHT22;56302;52.322;5.926;2023-02-21T04:37:51;8.30;98.80
69189;DHT22;56302;52.322;5.926;2023-02-21T04:40:16;8.30;98.80
69189;DHT22;56302;52.322;5.926;2023-02-21T04:42:42;8.30;98.80
69189;DHT22;56302;52.322;5.926;2023-02-21T04:45:08;8.30;98.80
69189;DHT22;56302;52.322;5.926;2023-02-21T04:47:34;8.30;98.90
69189;DHT22;56302;52.322;5.926;2023-02-21T04:49:59;8.30;98.90
69189;DHT22;56302;52.322;5.926;2023-02-21T04:52:25;8.30;98.90
69189;DHT22;56302;52.322;5.926;2023-02-21T04:54:50;8.30;98.80
69189;DHT22;56302;52.322;5.926;2023-02-21T04:57:16;8.30;98.80
69189;DHT22;56302;52.322;5.926;2023-02-21T04:59:42;8.30;98.90
69189;DHT22;56302;52.322;5.926;2023-02-21T05:02:07;8.30;98.90
69189;DHT22;56302;52.322;5.926;2023-02-21T05:04:34;8.30;98.90
69189;DHT22;56302;52.322;5.926;2023-02-21T05:07:01;8.30;98.80
69189;DHT22;56302;52.322;5.926;2023-02-21T05:09:26;8.30;98.90
69189;DHT22;56302;52.322;5.926;2023-02-21T05:11:52;8.30;98.90
69189;DHT22;56302;52.322;5.926;2023-02-21T05:14:17;8.30;98.90
69189;DHT22;56302;52.322;5.926;2023-02-21T05:16:43;8.30;98.90
69189;DHT22;56302;52.322;5.926;2023-02-21T05:19:09;8.30;98.90
69189;DHT22;56302;52.322;5.926;2023-02-21T05:21:36;8.30;98.90
69189;DHT22;56302;52.322;5.926;2023-02-21T05:24:05;8.30;99.00
69189;DHT22;56302;52.322;5.926;2023-02-21T05:26:35;8.30;98.90
69189;DHT22;56302;52.322;5.926;2023-02-21T05:29:02;8.30;99.00
69189;DHT22;56302;52.322;5.926;2023-02-21T05:31:28;8.30;98.90
69189;DHT22;56302;52.322;5.926;2023-02-21T05:33:54;8.30;99.00
69189;DHT22;56302;52.322;5.926;2023-02-21T05:36:19;8.30;99.00
69189;DHT22;56302;52.322;5.926;2023-02-21T05:38:47;8.30;99.10
69189;DHT22;56302;52.322;5.926;2023-02-21T05:41:14;8.30;99.10
69189;DHT22;56302;52.322;5.926;2023-02-21T05:43:42;8.30;99.20
69189;DHT22;56302;52.322;5.926;2023-02-21T05:48:43;8.30;99.10
69189;DHT22;56302;52.322;5.926;2023-02-21T05:51:09;8.30;99.20
69189;DHT22;56302;52.322;5.926;2023-02-21T05:53:34;8.30;99.30
69189;DHT22;56302;52.322;5.926;2023-02-21T05:56:00;8.30;99.30
69189;DHT22;56302;52.322;5.926;2023-02-21T05:58:25;8.30;99.30
69189;DHT22;56302;52.322;5.926;2023-02-21T06:00:51;8.30;99.30
69189;DHT22;56302;52.322;5.926;2023-02-21T06:03:17;8.30;99.30
69189;DHT22;56302;52.322;5.926;2023-02-21T06:05:42;8.30;99.40
69189;DHT22;56302;52.322;5.926;2023-02-21T06:08:08;8.30;99.40
69189;DHT22;56302;52.322;5.926;2023-02-21T06:10:34;8.30;99.40
69189;DHT22;56302;52.322;5.926;2023-02-21T06:12:59;8.30;99.50
69189;DHT22;56302;52.322;5.926;2023-02-21T06:15:25;8.30;99.40
69189;DHT22;56302;52.322;5.926;2023-02-21T06:17:50;8.30;99.50
69189;DHT22;56302;52.322;5.926;2023-02-21T06:20:16;8.30;99.50
69189;DHT22;56302;52.322;5.926;2023-02-21T06:22:42;8.20;99.50
69189;DHT22;56302;52.322;5.926;2023-02-21T06:25:08;8.20;99.50
69189;DHT22;56302;52.322;5.926;2023-02-21T06:27:34;8.20;99.50
69189;DHT22;56302;52.322;5.926;2023-02-21T06:30:00;8.20;99.60
69189;DHT22;56302;52.322;5.926;2023-02-21T06:32:25;8.20;99.60
69189;DHT22;56302;52.322;5.926;2023-02-21T06:34:52;8.20;99.60
69189;DHT22;56302;52.322;5.926;2023-02-21T06:37:18;8.20;99.60
69189;DHT22;56302;52.322;5.926;2023-02-21T06:39:43;8.20;99.60
69189;DHT22;56302;52.322;5.926;2023-02-21T06:42:13;8.20;99.70
69189;DHT22;56302;52.322;5.926;2023-02-21T06:44:41;8.20;99.70
69189;DHT22;56302;52.322;5.926;2023-02-21T06:47:06;8.20;99.70
69189;DHT22;56302;52.322;5.926;2023-02-21T06:49:32;8.20;99.70
69189;DHT22;56302;52.322;5.926;2023-02-21T06:51:57;8.20;99.70
69189;DHT22;56302;52.322;5.926;2023-02-21T06:54:23;8.20;99.80
69189;DHT22;56302;52.322;5.926;2023-02-21T06:56:49;8.20;99.80
69189;DHT22;56302;52.322;5.926;2023-02-21T06:59:15;8.20;99.80
69189;DHT22;56302;52.322;5.926;2023-02-21T07:01:40;8.20;99.80
69189;DHT22;56302;52.322;5.926;2023-02-21T07:04:06;8.20;99.80
69189;DHT22;56302;52.322;5.926;2023-02-21T07:06:31;8.20;99.90
69189;DHT22;56302;52.322;5.926;2023-02-21T07:08:58;8.20;99.90
69189;DHT22;56302;52.322;5.926;2023-02-21T07:11:23;8.20;99.90
69189;DHT22;56302;52.322;5.926;2023-02-21T07:13:53;8.20;99.90
69189;DHT22;56302;52.322;5.926;2023-02-21T07:16:21;8.20;99.90
69189;DHT22;56302;52.322;5.926;2023-02-21T07:18:47;8.20;99.90
69189;DHT22;56302;52.322;5.926;2023-02-21T07:21:20;8.20;99.90
69189;DHT22;56302;52.322;5.926;2023-02-21T07:23:47;8.20;99.90
69189;DHT22;56302;52.322;5.926;2023-02-21T07:26:14;8.20;99.90
69189;DHT22;56302;52.322;5.926;2023-02-21T07:28:40;8.20;99.90
69189;DHT22;56302;52.322;5.926;2023-02-21T07:31:06;8.20;99.90
69189;DHT22;56302;52.322;5.926;2023-02-21T07:33:31;8.20;99.90
69189;DHT22;56302;52.322;5.926;2023-02-21T07:35:57;8.20;99.90
69189;DHT22;56302;52.322;5.926;2023-02-21T07:38:24;8.20;99.90
69189;DHT22;56302;52.322;5.926;2023-02-21T07:40:53;8.20;99.90
69189;DHT22;56302;52.322;5.926;2023-02-21T07:43:19;8.20;99.90
69189;DHT22;56302;52.322;5.926;2023-02-21T07:45:44;8.20;99.90
69189;DHT22;56302;52.322;5.926;2023-02-21T07:48:10;8.20;99.90
69189;DHT22;56302;52.322;5.926;2023-02-21T07:50:41;8.20;99.90
69189;DHT22;56302;52.322;5.926;2023-02-21T07:53:07;8.20;99.90
69189;DHT22;56302;52.322;5.926;2023-02-21T07:55:33;8.20;99.90
69189;DHT22;56302;52.322;5.926;2023-02-21T07:57:59;8.20;99.90
69189;DHT22;56302;52.322;5.926;2023-02-21T08:00:25;8.20;99.90
69189;DHT22;56302;52.322;5.926;2023-02-21T08:02:51;8.30;99.90
69189;DHT22;56302;52.322;5.926;2023-02-21T08:05:18;8.30;99.90
69189;DHT22;56302;52.322;5.926;2023-02-21T08:07:44;8.30;99.90
69189;DHT22;56302;52.322;5.926;2023-02-21T08:10:10;8.30;99.90
69189;DHT22;56302;52.322;5.926;2023-02-21T08:12:36;8.30;99.90
69189;DHT22;56302;52.322;5.926;2023-02-21T08:15:02;8.30;99.90
69189;DHT22;56302;52.322;5.926;2023-02-21T08:17:29;8.30;99.90
69189;DHT22;56302;52.322;5.926;2023-02-21T08:19:54;8.30;99.90
69189;DHT22;56302;52.322;5.926;2023-02-21T08:22:20;8.30;99.90
69189;DHT22;56302;52.322;5.926;2023-02-21T08:24:48;8.30;99.90
69189;DHT22;56302;52.322;5.926;2023-02-21T08:27:14;8.30;99.90
69189;DHT22;56302;52.322;5.926;2023-02-21T08:29:40;8.30;99.90
69189;DHT22;56302;52.322;5.926;2023-02-21T08:32:05;8.30;99.90
69189;DHT22;56302;52.322;5.926;2023-02-21T08:34:31;8.30;99.90
69189;DHT22;56302;52.322;5.926;2023-02-21T08:36:56;8.30;99.90
69189;DHT22;56302;52.322;5.926;2023-02-21T08:39:22;8.30;99.90
69189;DHT22;56302;52.322;5.926;2023-02-21T08:41:48;8.30;99.90
69189;DHT22;56302;52.322;5.926;2023-02-21T08:44:15;8.30;99.90
69189;DHT22;56302;52.322;5.926;2023-02-21T08:46:41;8.40;99.90
69189;DHT22;56302;52.322;5.926;2023-02-21T08:49:09;8.40;99.90
69189;DHT22;56302;52.322;5.926;2023-02-21T08:51:35;8.40;99.90
69189;DHT22;56302;52.322;5.926;2023-02-21T08:54:01;8.40;99.90
69189;DHT22;56302;52.322;5.926;2023-02-21T08:56:28;8.40;99.90
69189;DHT22;56302;52.322;5.926;2023-02-21T08:58:55;8.50;99.90
69189;DHT22;56302;52.322;5.926;2023-02-21T09:01:22;8.50;99.90
69189;DHT22;56302;52.322;5.926;2023-02-21T09:03:48;8.50;99.90
69189;DHT22;56302;52.322;5.926;2023-02-21T09:06:14;8.50;99.90
69189;DHT22;56302;52.322;5.926;2023-02-21T09:08:40;8.50;99.90
69189;DHT22;56302;52.322;5.926;2023-02-21T09:11:06;8.60;99.90
69189;DHT22;56302;52.322;5.926;2023-02-21T09:13:32;8.60;99.90
69189;DHT22;56302;52.322;5.926;2023-02-21T09:15:59;8.60;99.90
69189;DHT22;56302;52.322;5.926;2023-02-21T09:18:25;8.60;99.90
69189;DHT22;56302;52.322;5.926;2023-02-21T09:20:51;8.60;99.90
69189;DHT22;56302;52.322;5.926;2023-02-21T09:23:20;8.60;99.90
69189;DHT22;56302;52.322;5.926;2023-02-21T09:25:46;8.60;99.90
69189;DHT22;56302;52.322;5.926;2023-02-21T09:28:13;8.60;99.90
69189;DHT22;56302;52.322;5.926;2023-02-21T09:30:38;8.60;99.90
69189;DHT22;56302;52.322;5.926;2023-02-21T09:33:04;8.60;99.90
69189;DHT22;56302;52.322;5.926;2023-02-21T09:35:29;8.60;99.90
69189;DHT22;56302;52.322;5.926;2023-02-21T09:37:56;8.60;99.90
69189;DHT22;56302;52.322;5.926;2023-02-21T09:43:05;8.70;99.90
69189;DHT22;56302;52.322;5.926;2023-02-21T09:45:35;8.70;99.90
69189;DHT22;56302;52.322;5.926;2023-02-21T09:48:05;8.70;99.90
69189;DHT22;56302;52.322;5.926;2023-02-21T09:50:40;8.70;99.90
69189;DHT22;56302;52.322;5.926;2023-02-21T09:53:07;8.70;99.90
69189;DHT22;56302;52.322;5.926;2023-02-21T09:55:37;8.70;99.90
69189;DHT22;56302;52.322;5.926;2023-02-21T09:58:14;8.70;99.90
69189;DHT22;56302;52.322;5.926;2023-02-21T10:00:39;8.70;99.90
69189;DHT22;56302;52.322;5.926;2023-02-21T10:03:35;8.70;99.70
69189;DHT22;56302;52.322;5.926;2023-02-21T10:06:19;8.70;99.80
69189;DHT22;56302;52.322;5.926;2023-02-21T10:08:53;8.70;99.70
69189;DHT22;56302;52.322;5.926;2023-02-21T10:11:40;8.70;99.60
69189;DHT22;56302;52.322;5.926;2023-02-21T10:14:39;8.80;99.60
69189;DHT22;56302;52.322;5.926;2023-02-21T10:19:44;8.70;99.40
69189;DHT22;56302;52.322;5.926;2023-02-21T10:22:18;8.70;99.30
69189;DHT22;56302;52.322;5.926;2023-02-21T10:24:44;8.70;99.40
69189;DHT22;56302;52.322;5.926;2023-02-21T10:27:18;8.70;99.40
69189;DHT22;56302;52.322;5.926;2023-02-21T10:29:53;8.80;99.30
69189;DHT22;56302;52.322;5.926;2023-02-21T10:32:21;8.70;99.30
69189;DHT22;56302;52.322;5.926;2023-02-21T10:34:49;8.70;99.40
69189;DHT22;56302;52.322;5.926;2023-02-21T10:37:26;8.70;99.40
69189;DHT22;56302;52.322;5.926;2023-02-21T10:39:59;8.70;99.40
69189;DHT22;56302;52.322;5.926;2023-02-21T10:42:51;8.70;99.30
69189;DHT22;56302;52.322;5.926;2023-02-21T10:45:19;8.70;99.40
69189;DHT22;56302;52.322;5.926;2023-02-21T10:50:48;8.70;99.20
69189;DHT22;56302;52.322;5.926;2023-02-21T10:58:37;8.80;99.30
69189;DHT22;56302;52.322;5.926;2023-02-21T11:01:11;8.80;99.30
69189;DHT22;56302;52.322;5.926;2023-02-21T11:03:44;8.80;99.20
69189;DHT22;56302;52.322;5.926;2023-02-21T11:06:43;8.90;99.20
69189;DHT22;56302;52.322;5.926;2023-02-21T11:09:42;8.90;99.10
69189;DHT22;56302;52.322;5.926;2023-02-21T11:14:36;8.90;98.90
69189;DHT22;56302;52.322;5.926;2023-02-21T11:17:14;8.90;99.00
69189;DHT22;56302;52.322;5.926;2023-02-21T11:19:51;8.90;98.70
69189;DHT22;56302;52.322;5.926;2023-02-21T11:22:21;8.90;98.90
69189;DHT22;56302;52.322;5.926;2023-02-21T11:24:49;9.00;98.90
69189;DHT22;56302;52.322;5.926;2023-02-21T11:27:15;9.00;98.80
69189;DHT22;56302;52.322;5.926;2023-02-21T11:29:43;9.00;98.60
69189;DHT22;56302;52.322;5.926;2023-02-21T11:32:38;9.00;98.60
69189;DHT22;56302;52.322;5.926;2023-02-21T11:35:25;9.00;98.50
69189;DHT22;56302;52.322;5.926;2023-02-21T11:38:00;9.00;98.50
69189;DHT22;56302;52.322;5.926;2023-02-21T11:45:37;9.00;98.50
69189;DHT22;56302;52.322;5.926;2023-02-21T11:48:13;9.00;98.40
69189;DHT22;56302;52.322;5.926;2023-02-21T11:50:45;9.00;98.50
69189;DHT22;56302;52.322;5.926;2023-02-21T11:53:44;9.00;98.50
69189;DHT22;56302;52.322;5.926;2023-02-21T11:59:01;9.00;98.50
69189;DHT22;56302;52.322;5.926;2023-02-21T12:01:36;9.00;98.50
69189;DHT22;56302;52.322;5.926;2023-02-21T12:04:33;9.10;98.50
69189;DHT22;56302;52.322;5.926;2023-02-21T12:12:56;9.10;98.50
69189;DHT22;56302;52.322;5.926;2023-02-21T12:25:54;9.10;98.20
69189;DHT22;56302;52.322;5.926;2023-02-21T12:37:08;9.10;98.40
69189;DHT22;56302;52.322;5.926;2023-02-21T12:43:03;9.10;98.50
69189;DHT22;56302;52.322;5.926;2023-02-21T12:46:01;9.10;98.60
69189;DHT22;56302;52.322;5.926;2023-02-21T12:48:40;9.10;98.70
69189;DHT22;56302;52.322;5.926;2023-02-21T12:51:10;9.00;98.70
69189;DHT22;56302;52.322;5.926;2023-02-21T12:53:46;9.10;98.80
69189;DHT22;56302;52.322;5.926;2023-02-21T12:56:19;9.10;98.80
69189;DHT22;56302;52.322;5.926;2023-02-21T12:59:05;9.10;98.90
69189;DHT22;56302;52.322;5.926;2023-02-21T13:01:37;9.10;98.90
69189;DHT22;56302;52.322;5.926;2023-02-21T13:04:13;9.10;98.90
69189;DHT22;56302;52.322;5.926;2023-02-21T13:09:44;9.20;98.80
69189;DHT22;56302;52.322;5.926;2023-02-21T13:12:22;9.10;98.90
69189;DHT22;56302;52.322;5.926;2023-02-21T13:17:18;9.10;99.00
69189;DHT22;56302;52.322;5.926;2023-02-21T13:19:54;9.10;99.00
69189;DHT22;56302;52.322;5.926;2023-02-21T13:28:21;9.10;99.20
69189;DHT22;56302;52.322;5.926;2023-02-21T13:30:56;9.10;99.20
69189;DHT22;56302;52.322;5.926;2023-02-21T13:33:43;9.10;99.20
69189;DHT22;56302;52.322;5.926;2023-02-21T13:36:30;9.10;99.20
69189;DHT22;56302;52.322;5.926;2023-02-21T13:39:28;9.10;99.30
69189;DHT22;56302;52.322;5.926;2023-02-21T13:44:31;9.20;99.30
69189;DHT22;56302;52.322;5.926;2023-02-21T13:47:06;9.20;99.30
69189;DHT22;56302;52.322;5.926;2023-02-21T13:49:43;9.10;99.30
69189;DHT22;56302;52.322;5.926;2023-02-21T13:57:44;9.10;99.30
69189;DHT22;56302;52.322;5.926;2023-02-21T14:03:01;9.10;99.30
69189;DHT22;56302;52.322;5.926;2023-02-21T14:08:40;9.00;99.50
69189;DHT22;56302;52.322;5.926;2023-02-21T14:13:49;9.10;99.70
69189;DHT22;56302;52.322;5.926;2023-02-21T14:16:52;9.10;99.60
69189;DHT22;56302;52.322;5.926;2023-02-21T14:19:25;9.10;99.60
69189;DHT22;56302;52.322;5.926;2023-02-21T14:22:28;9.10;99.50
69189;DHT22;56302;52.322;5.926;2023-02-21T14:25:07;9.10;99.60
69189;DHT22;56302;52.322;5.926;2023-02-21T14:27:39;9.20;99.50
69189;DHT22;56302;52.322;5.926;2023-02-21T14:32:43;9.20;99.50
69189;DHT22;56302;52.322;5.926;2023-02-21T14:35:45;9.20;99.50
69189;DHT22;56302;52.322;5.926;2023-02-21T14:38:22;9.20;99.40
69189;DHT22;56302;52.322;5.926;2023-02-21T14:44:21;9.20;99.40
69189;DHT22;56302;52.322;5.926;2023-02-21T14:49:33;9.10;99.30
69189;DHT22;56302;52.322;5.926;2023-02-21T14:52:25;9.10;99.30
69189;DHT22;56302;52.322;5.926;2023-02-21T15:01:07;9.10;99.30
69189;DHT22;56302;52.322;5.926;2023-02-21T15:03:54;9.10;99.40
69189;DHT22;56302;52.322;5.926;2023-02-21T15:06:25;9.10;99.40
69189;DHT22;56302;52.322;5.926;2023-02-21T15:08:52;9.10;99.40
69189;DHT22;56302;52.322;5.926;2023-02-21T15:11:27;9.10;99.40
69189;DHT22;56302;52.322;5.926;2023-02-21T15:14:14;9.10;99.40
69189;DHT22;56302;52.322;5.926;2023-02-21T15:16:47;9.10;99.40
69189;DHT22;56302;52.322;5.926;2023-02-21T15:19:39;9.00;99.40
69189;DHT22;56302;52.322;5.926;2023-02-21T15:22:22;9.00;99.40
69189;DHT22;56302;52.322;5.926;2023-02-21T15:27:33;9.00;99.50
69189;DHT22;56302;52.322;5.926;2023-02-21T15:30:18;9.00;99.50
69189;DHT22;56302;52.322;5.926;2023-02-21T15:35:42;9.00;99.50
69189;DHT22;56302;52.322;5.926;2023-02-21T15:38:21;9.00;99.40
69189;DHT22;56302;52.322;5.926;2023-02-21T15:40:48;9.00;99.50
69189;DHT22;56302;52.322;5.926;2023-02-21T15:43:31;9.00;99.50
69189;DHT22;56302;52.322;5.926;2023-02-21T15:45:59;8.90;99.50
69189;DHT22;56302;52.322;5.926;2023-02-21T15:48:26;8.90;99.50
69189;DHT22;56302;52.322;5.926;2023-02-21T15:50:52;8.90;99.50
69189;DHT22;56302;52.322;5.926;2023-02-21T15:53:22;8.90;99.50
69189;DHT22;56302;52.322;5.926;2023-02-21T15:55:50;8.90;99.50
69189;DHT22;56302;52.322;5.926;2023-02-21T15:58:24;8.90;99.50
69189;DHT22;56302;52.322;5.926;2023-02-21T16:01:11;8.90;99.50
69189;DHT22;56302;52.322;5.926;2023-02-21T16:03:41;8.90;99.50
69189;DHT22;56302;52.322;5.926;2023-02-21T16:06:28;8.90;99.50
69189;DHT22;56302;52.322;5.926;2023-02-21T16:11:25;8.90;99.50
69189;DHT22;56302;52.322;5.926;2023-02-21T16:13:51;8.80;99.60
69189;DHT22;56302;52.322;5.926;2023-02-21T16:16:17;8.80;99.50
69189;DHT22;56302;52.322;5.926;2023-02-21T16:18:42;8.80;99.60
69189;DHT22;56302;52.322;5.926;2023-02-21T16:21:22;8.80;99.70
69189;DHT22;56302;52.322;5.926;2023-02-21T16:23:49;8.80;99.70
69189;DHT22;56302;52.322;5.926;2023-02-21T16:28:42;8.70;99.70
69189;DHT22;56302;52.322;5.926;2023-02-21T16:31:14;8.70;99.70
69189;DHT22;56302;52.322;5.926;2023-02-21T16:33:40;8.70;99.70
69189;DHT22;56302;52.322;5.926;2023-02-21T16:36:19;8.70;99.70
69189;DHT22;56302;52.322;5.926;2023-02-21T16:38:46;8.70;99.70
69189;DHT22;56302;52.322;5.926;2023-02-21T16:41:12;8.70;99.70
69189;DHT22;56302;52.322;5.926;2023-02-21T16:43:38;8.70;99.70
69189;DHT22;56302;52.322;5.926;2023-02-21T16:46:04;8.70;99.70
69189;DHT22;56302;52.322;5.926;2023-02-21T16:48:30;8.70;99.70
69189;DHT22;56302;52.322;5.926;2023-02-21T16:51:10;8.70;99.70
69189;DHT22;56302;52.322;5.926;2023-02-21T16:53:38;8.60;99.70
69189;DHT22;56302;52.322;5.926;2023-02-21T16:56:04;8.60;99.80
69189;DHT22;56302;52.322;5.926;2023-02-21T16:58:32;8.60;99.80
69189;DHT22;56302;52.322;5.926;2023-02-21T17:01:02;8.60;99.80
69189;DHT22;56302;52.322;5.926;2023-02-21T17:03:28;8.50;99.80
69189;DHT22;56302;52.322;5.926;2023-02-21T17:05:55;8.50;99.90
69189;DHT22;56302;52.322;5.926;2023-02-21T17:08:21;8.50;99.90
69189;DHT22;56302;52.322;5.926;2023-02-21T17:10:47;8.50;99.90
69189;DHT22;56302;52.322;5.926;2023-02-21T17:13:12;8.50;99.90
69189;DHT22;56302;52.322;5.926;2023-02-21T17:15:38;8.50;99.90
69189;DHT22;56302;52.322;5.926;2023-02-21T17:18:04;8.50;99.90
69189;DHT22;56302;52.322;5.926;2023-02-21T17:20:29;8.40;99.90
69189;DHT22;56302;52.322;5.926;2023-02-21T17:22:55;8.40;99.90
69189;DHT22;56302;52.322;5.926;2023-02-21T17:25:23;8.40;99.90
69189;DHT22;56302;52.322;5.926;2023-02-21T17:27:50;8.40;99.90
69189;DHT22;56302;52.322;5.926;2023-02-21T17:30:17;8.40;99.90
69189;DHT22;56302;52.322;5.926;2023-02-21T17:32:44;8.40;99.90
69189;DHT22;56302;52.322;5.926;2023-02-21T17:35:12;8.40;99.90
69189;DHT22;56302;52.322;5.926;2023-02-21T17:37:39;8.30;99.90
69189;DHT22;56302;52.322;5.926;2023-02-21T17:40:05;8.30;99.90
69189;DHT22;56302;52.322;5.926;2023-02-21T17:42:30;8.30;99.90
69189;DHT22;56302;52.322;5.926;2023-02-21T17:44:56;8.30;99.90
69189;DHT22;56302;52.322;5.926;2023-02-21T17:47:23;8.30;99.90
69189;DHT22;56302;52.322;5.926;2023-02-21T17:49:49;8.30;99.90
69189;DHT22;56302;52.322;5.926;2023-02-21T17:52:16;8.30;99.90
69189;DHT22;56302;52.322;5.926;2023-02-21T17:54:41;8.30;99.90
69189;DHT22;56302;52.322;5.926;2023-02-21T17:57:08;8.30;99.90
69189;DHT22;56302;52.322;5.926;2023-02-21T17:59:35;8.20;99.90
69189;DHT22;56302;52.322;5.926;2023-02-21T18:02:01;8.30;99.90
69189;DHT22;56302;52.322;5.926;2023-02-21T18:04:26;8.20;99.90
69189;DHT22;56302;52.322;5.926;2023-02-21T18:06:52;8.20;99.90
69189;DHT22;56302;52.322;5.926;2023-02-21T18:09:18;8.20;99.90
69189;DHT22;56302;52.322;5.926;2023-02-21T18:11:48;8.20;99.90
69189;DHT22;56302;52.322;5.926;2023-02-21T18:14:13;8.20;99.90
69189;DHT22;56302;52.322;5.926;2023-02-21T18:16:39;8.20;99.90
69189;DHT22;56302;52.322;5.926;2023-02-21T18:19:05;8.20;99.90
69189;DHT22;56302;52.322;5.926;2023-02-21T18:21:30;8.20;99.90
69189;DHT22;56302;52.322;5.926;2023-02-21T18:23:56;8.10;99.90
69189;DHT22;56302;52.322;5.926;2023-02-21T18:26:21;8.10;99.90
69189;DHT22;56302;52.322;5.926;2023-02-21T18:28:47;8.10;99.90
69189;DHT22;56302;52.322;5.926;2023-02-21T18:31:17;8.10;99.90
69189;DHT22;56302;52.322;5.926;2023-02-21T18:33:43;8.10;99.90